sensor_id;sensor_type;location;lat;lon;timestamp;P1;durP1;ratioP1;P2;durP2;ratioP2
63193;SDS011;49289;51.670;5.624;2022-10-18T00:00:42;13.10;;;8.50;;
63193;SDS011;49289;51.670;5.624;2022-10-18T00:02:29;18.00;;;8.00;;
63193;SDS011;49289;51.670;5.624;2022-10-18T00:04:16;15.00;;;8.40;;
63193;SDS011;49289;51.670;5.624;2022-10-18T00:06:05;17.40;;;8.60;;
63193;SDS011;49289;51.670;5.624;2022-10-18T00:07:52;14.60;;;8.40;;
63193;SDS011;49289;51.670;5.624;2022-10-18T00:09:40;24.50;;;8.60;;
63193;SDS011;49289;51.670;5.624;2022-10-18T00:11:28;15.50;;;8.20;;
63193;SDS011;49289;51.670;5.624;2022-10-18T00:13:15;14.40;;;8.80;;
63193;SDS011;49289;51.670;5.624;2022-10-18T00:15:03;13.80;;;8.80;;
63193;SDS011;49289;51.670;5.624;2022-10-18T00:16:51;14.30;;;8.60;;
63193;SDS011;49289;51.670;5.624;2022-10-18T00:18:38;28.90;;;9.00;;
63193;SDS011;49289;51.670;5.624;2022-10-18T00:20:26;14.60;;;8.60;;
63193;SDS011;49289;51.670;5.624;2022-10-18T00:22:13;15.80;;;8.90;;
63193;SDS011;49289;51.670;5.624;2022-10-18T00:24:00;15.20;;;8.80;;
63193;SDS011;49289;51.670;5.624;2022-10-18T00:25:47;13.30;;;8.40;;
63193;SDS011;49289;51.670;5.624;2022-10-18T00:27:34;12.40;;;8.60;;
63193;SDS011;49289;51.670;5.624;2022-10-18T00:29:21;19.80;;;9.20;;
63193;SDS011;49289;51.670;5.624;2022-10-18T00:31:15;13.20;;;8.30;;
63193;SDS011;49289;51.670;5.624;2022-10-18T00:33:03;18.20;;;9.40;;
63193;SDS011;49289;51.670;5.624;2022-10-18T00:34:50;17.70;;;9.00;;
63193;SDS011;49289;51.670;5.624;2022-10-18T00:36:37;12.50;;;8.30;;
63193;SDS011;49289;51.670;5.624;2022-10-18T00:38:25;14.90;;;8.70;;
63193;SDS011;49289;51.670;5.624;2022-10-18T00:40:13;17.70;;;8.50;;
63193;SDS011;49289;51.670;5.624;2022-10-18T00:42:00;12.50;;;8.30;;
63193;SDS011;49289;51.670;5.624;2022-10-18T00:43:58;11.10;;;8.50;;
63193;SDS011;49289;51.670;5.624;2022-10-18T00:45:45;14.50;;;8.50;;
63193;SDS011;49289;51.670;5.624;2022-10-18T00:47:34;17.60;;;8.70;;
63193;SDS011;49289;51.670;5.624;2022-10-18T00:49:24;124.90;;;11.10;;
63193;SDS011;49289;51.670;5.624;2022-10-18T00:51:11;13.90;;;8.40;;
63193;SDS011;49289;51.670;5.624;2022-10-18T00:52:59;11.40;;;8.20;;
63193;SDS011;49289;51.670;5.624;2022-10-18T00:54:48;10.20;;;8.00;;
63193;SDS011;49289;51.670;5.624;2022-10-18T00:56:37;13.50;;;8.20;;
63193;SDS011;49289;51.670;5.624;2022-10-18T00:58:25;110.50;;;11.20;;
63193;SDS011;49289;51.670;5.624;2022-10-18T01:00:13;52.00;;;9.10;;
63193;SDS011;49289;51.670;5.624;2022-10-18T01:02:01;11.80;;;7.50;;
63193;SDS011;49289;51.670;5.624;2022-10-18T01:03:49;49.10;;;8.80;;
63193;SDS011;49289;51.670;5.624;2022-10-18T01:05:40;13.60;;;7.70;;
63193;SDS011;49289;51.670;5.624;2022-10-18T01:07:40;16.10;;;8.30;;
63193;SDS011;49289;51.670;5.624;2022-10-18T01:09:32;14.80;;;8.70;;
63193;SDS011;49289;51.670;5.624;2022-10-18T01:11:30;13.00;;;8.70;;
63193;SDS011;49289;51.670;5.624;2022-10-18T01:13:22;14.60;;;8.60;;
63193;SDS011;49289;51.670;5.624;2022-10-18T01:15:15;15.60;;;9.20;;
63193;SDS011;49289;51.670;5.624;2022-10-18T01:17:02;13.20;;;8.60;;
63193;SDS011;49289;51.670;5.624;2022-10-18T01:18:49;16.90;;;9.30;;
63193;SDS011;49289;51.670;5.624;2022-10-18T01:22:48;16.50;;;8.40;;
63193;SDS011;49289;51.670;5.624;2022-10-18T01:24:39;13.90;;;8.10;;
63193;SDS011;49289;51.670;5.624;2022-10-18T01:26:35;11.70;;;8.30;;
63193;SDS011;49289;51.670;5.624;2022-10-18T01:28:30;15.30;;;8.60;;
63193;SDS011;49289;51.670;5.624;2022-10-18T01:30:24;9.90;;;8.10;;
63193;SDS011;49289;51.670;5.624;2022-10-18T01:32:20;12.30;;;7.90;;
63193;SDS011;49289;51.670;5.624;2022-10-18T01:34:07;22.80;;;8.70;;
63193;SDS011;49289;51.670;5.624;2022-10-18T01:35:55;10.60;;;7.90;;
63193;SDS011;49289;51.670;5.624;2022-10-18T01:37:42;14.00;;;8.30;;
63193;SDS011;49289;51.670;5.624;2022-10-18T01:39:32;16.60;;;7.70;;
63193;SDS011;49289;51.670;5.624;2022-10-18T01:41:20;16.10;;;8.60;;
63193;SDS011;49289;51.670;5.624;2022-10-18T01:43:07;13.40;;;8.30;;
63193;SDS011;49289;51.670;5.624;2022-10-18T01:44:55;13.00;;;8.30;;
63193;SDS011;49289;51.670;5.624;2022-10-18T01:46:42;19.00;;;8.40;;
63193;SDS011;49289;51.670;5.624;2022-10-18T01:48:29;18.40;;;8.70;;
63193;SDS011;49289;51.670;5.624;2022-10-18T01:50:21;12.70;;;8.40;;
63193;SDS011;49289;51.670;5.624;2022-10-18T01:52:10;12.50;;;8.00;;
63193;SDS011;49289;51.670;5.624;2022-10-18T01:53:58;14.40;;;8.20;;
63193;SDS011;49289;51.670;5.624;2022-10-18T01:55:48;14.50;;;8.50;;
63193;SDS011;49289;51.670;5.624;2022-10-18T01:57:35;32.40;;;7.80;;
63193;SDS011;49289;51.670;5.624;2022-10-18T02:01:32;13.70;;;7.70;;
63193;SDS011;49289;51.670;5.624;2022-10-18T02:03:19;12.90;;;7.60;;
63193;SDS011;49289;51.670;5.624;2022-10-18T02:05:08;11.30;;;8.20;;
63193;SDS011;49289;51.670;5.624;2022-10-18T02:07:00;9.90;;;7.90;;
63193;SDS011;49289;51.670;5.624;2022-10-18T02:08:48;10.70;;;8.30;;
63193;SDS011;49289;51.670;5.624;2022-10-18T02:10:37;11.70;;;8.10;;
63193;SDS011;49289;51.670;5.624;2022-10-18T02:12:22;14.70;;;7.90;;
63193;SDS011;49289;51.670;5.624;2022-10-18T02:14:10;12.50;;;7.80;;
63193;SDS011;49289;51.670;5.624;2022-10-18T02:15:59;16.50;;;8.10;;
63193;SDS011;49289;51.670;5.624;2022-10-18T02:17:46;9.50;;;7.40;;
63193;SDS011;49289;51.670;5.624;2022-10-18T02:19:35;13.90;;;8.60;;
63193;SDS011;49289;51.670;5.624;2022-10-18T02:21:22;15.10;;;8.00;;
63193;SDS011;49289;51.670;5.624;2022-10-18T02:23:09;17.10;;;8.10;;
63193;SDS011;49289;51.670;5.624;2022-10-18T02:24:57;13.90;;;7.40;;
63193;SDS011;49289;51.670;5.624;2022-10-18T02:26:44;19.50;;;7.80;;
63193;SDS011;49289;51.670;5.624;2022-10-18T02:28:31;11.40;;;7.70;;
63193;SDS011;49289;51.670;5.624;2022-10-18T02:30:19;12.90;;;8.10;;
63193;SDS011;49289;51.670;5.624;2022-10-18T02:32:10;15.50;;;8.20;;
63193;SDS011;49289;51.670;5.624;2022-10-18T02:33:57;12.40;;;8.60;;
63193;SDS011;49289;51.670;5.624;2022-10-18T02:35:44;16.80;;;8.00;;
63193;SDS011;49289;51.670;5.624;2022-10-18T02:37:32;11.80;;;7.70;;
63193;SDS011;49289;51.670;5.624;2022-10-18T02:39:21;15.40;;;8.40;;
63193;SDS011;49289;51.670;5.624;2022-10-18T02:41:09;34.30;;;8.20;;
63193;SDS011;49289;51.670;5.624;2022-10-18T02:42:58;14.10;;;8.00;;
63193;SDS011;49289;51.670;5.624;2022-10-18T02:44:45;11.00;;;7.80;;
63193;SDS011;49289;51.670;5.624;2022-10-18T02:46:33;15.20;;;8.20;;
63193;SDS011;49289;51.670;5.624;2022-10-18T02:48:20;11.90;;;7.60;;
63193;SDS011;49289;51.670;5.624;2022-10-18T02:50:09;12.70;;;7.60;;
63193;SDS011;49289;51.670;5.624;2022-10-18T02:51:58;17.40;;;8.60;;
63193;SDS011;49289;51.670;5.624;2022-10-18T02:53:46;12.80;;;7.80;;
63193;SDS011;49289;51.670;5.624;2022-10-18T02:55:34;10.70;;;8.30;;
63193;SDS011;49289;51.670;5.624;2022-10-18T02:57:22;10.50;;;7.50;;
63193;SDS011;49289;51.670;5.624;2022-10-18T02:59:09;11.40;;;7.90;;
63193;SDS011;49289;51.670;5.624;2022-10-18T03:00:56;13.70;;;7.90;;
63193;SDS011;49289;51.670;5.624;2022-10-18T03:02:43;11.70;;;7.80;;
63193;SDS011;49289;51.670;5.624;2022-10-18T03:04:30;12.50;;;8.00;;
63193;SDS011;49289;51.670;5.624;2022-10-18T03:06:17;13.20;;;7.70;;
63193;SDS011;49289;51.670;5.624;2022-10-18T03:08:04;14.80;;;8.00;;
63193;SDS011;49289;51.670;5.624;2022-10-18T03:09:51;13.00;;;8.20;;
63193;SDS011;49289;51.670;5.624;2022-10-18T03:11:38;15.00;;;7.90;;
63193;SDS011;49289;51.670;5.624;2022-10-18T03:13:25;12.90;;;8.20;;
63193;SDS011;49289;51.670;5.624;2022-10-18T03:15:14;12.90;;;7.20;;
63193;SDS011;49289;51.670;5.624;2022-10-18T03:17:01;10.00;;;7.90;;
63193;SDS011;49289;51.670;5.624;2022-10-18T03:18:48;13.00;;;7.60;;
63193;SDS011;49289;51.670;5.624;2022-10-18T03:20:36;12.90;;;8.40;;
63193;SDS011;49289;51.670;5.624;2022-10-18T03:22:23;14.70;;;8.60;;
63193;SDS011;49289;51.670;5.624;2022-10-18T03:24:11;14.70;;;8.70;;
63193;SDS011;49289;51.670;5.624;2022-10-18T03:25:59;11.10;;;8.30;;
63193;SDS011;49289;51.670;5.624;2022-10-18T03:27:47;12.80;;;8.30;;
63193;SDS011;49289;51.670;5.624;2022-10-18T03:29:36;15.50;;;8.80;;
63193;SDS011;49289;51.670;5.624;2022-10-18T03:31:24;15.10;;;9.30;;
63193;SDS011;49289;51.670;5.624;2022-10-18T03:33:11;16.20;;;9.70;;
63193;SDS011;49289;51.670;5.624;2022-10-18T03:34:58;18.90;;;9.70;;
63193;SDS011;49289;51.670;5.624;2022-10-18T03:36:47;15.60;;;9.00;;
63193;SDS011;49289;51.670;5.624;2022-10-18T03:38:34;14.00;;;8.90;;
63193;SDS011;49289;51.670;5.624;2022-10-18T03:40:22;14.70;;;9.30;;
63193;SDS011;49289;51.670;5.624;2022-10-18T03:42:10;21.90;;;10.40;;
63193;SDS011;49289;51.670;5.624;2022-10-18T03:43:58;41.70;;;14.40;;
63193;SDS011;49289;51.670;5.624;2022-10-18T03:45:46;57.00;;;15.90;;
63193;SDS011;49289;51.670;5.624;2022-10-18T03:47:34;67.60;;;15.60;;
63193;SDS011;49289;51.670;5.624;2022-10-18T03:49:22;81.00;;;16.90;;
63193;SDS011;49289;51.670;5.624;2022-10-18T03:51:13;86.90;;;17.60;;
63193;SDS011;49289;51.670;5.624;2022-10-18T03:53:01;80.80;;;17.80;;
63193;SDS011;49289;51.670;5.624;2022-10-18T03:54:49;71.20;;;17.20;;
63193;SDS011;49289;51.670;5.624;2022-10-18T03:56:37;82.30;;;16.90;;
63193;SDS011;49289;51.670;5.624;2022-10-18T03:58:25;125.70;;;18.60;;
63193;SDS011;49289;51.670;5.624;2022-10-18T04:00:13;107.30;;;18.30;;
63193;SDS011;49289;51.670;5.624;2022-10-18T04:02:03;164.70;;;19.10;;
63193;SDS011;49289;51.670;5.624;2022-10-18T04:03:50;74.30;;;16.10;;
63193;SDS011;49289;51.670;5.624;2022-10-18T04:05:38;72.20;;;14.90;;
63193;SDS011;49289;51.670;5.624;2022-10-18T04:07:26;91.20;;;16.50;;
63193;SDS011;49289;51.670;5.624;2022-10-18T04:09:14;198.10;;;19.10;;
63193;SDS011;49289;51.670;5.624;2022-10-18T04:11:03;98.30;;;16.20;;
63193;SDS011;49289;51.670;5.624;2022-10-18T04:12:50;98.60;;;16.70;;
63193;SDS011;49289;51.670;5.624;2022-10-18T04:14:37;87.50;;;15.70;;
63193;SDS011;49289;51.670;5.624;2022-10-18T04:16:25;165.50;;;17.50;;
63193;SDS011;49289;51.670;5.624;2022-10-18T04:18:14;42.70;;;14.30;;
63193;SDS011;49289;51.670;5.624;2022-10-18T04:20:02;96.00;;;15.00;;
63193;SDS011;49289;51.670;5.624;2022-10-18T04:21:50;116.00;;;16.10;;
63193;SDS011;49289;51.670;5.624;2022-10-18T04:23:37;147.90;;;16.50;;
63193;SDS011;49289;51.670;5.624;2022-10-18T04:25:39;74.20;;;14.50;;
63193;SDS011;49289;51.670;5.624;2022-10-18T04:27:29;61.50;;;13.60;;
63193;SDS011;49289;51.670;5.624;2022-10-18T04:29:17;59.00;;;13.70;;
63193;SDS011;49289;51.670;5.624;2022-10-18T04:31:05;86.30;;;15.30;;
63193;SDS011;49289;51.670;5.624;2022-10-18T04:32:53;66.30;;;14.20;;
63193;SDS011;49289;51.670;5.624;2022-10-18T04:34:42;170.60;;;17.20;;
63193;SDS011;49289;51.670;5.624;2022-10-18T04:36:30;125.40;;;15.90;;
63193;SDS011;49289;51.670;5.624;2022-10-18T04:38:18;125.10;;;16.00;;
63193;SDS011;49289;51.670;5.624;2022-10-18T04:40:07;98.60;;;15.40;;
63193;SDS011;49289;51.670;5.624;2022-10-18T04:41:55;59.00;;;13.60;;
63193;SDS011;49289;51.670;5.624;2022-10-18T04:43:43;56.40;;;13.00;;
63193;SDS011;49289;51.670;5.624;2022-10-18T04:45:31;40.00;;;13.30;;
63193;SDS011;49289;51.670;5.624;2022-10-18T04:47:20;165.90;;;15.80;;
63193;SDS011;49289;51.670;5.624;2022-10-18T04:49:07;73.20;;;14.10;;
63193;SDS011;49289;51.670;5.624;2022-10-18T04:50:54;66.70;;;13.30;;
63193;SDS011;49289;51.670;5.624;2022-10-18T04:52:41;39.20;;;12.40;;
63193;SDS011;49289;51.670;5.624;2022-10-18T04:54:28;56.70;;;13.30;;
63193;SDS011;49289;51.670;5.624;2022-10-18T04:56:17;70.10;;;14.90;;
63193;SDS011;49289;51.670;5.624;2022-10-18T04:58:05;137.90;;;16.20;;
63193;SDS011;49289;51.670;5.624;2022-10-18T04:59:54;157.40;;;15.60;;
63193;SDS011;49289;51.670;5.624;2022-10-18T05:01:44;52.80;;;11.90;;
63193;SDS011;49289;51.670;5.624;2022-10-18T05:03:33;77.80;;;13.80;;
63193;SDS011;49289;51.670;5.624;2022-10-18T05:05:21;47.60;;;12.60;;
63193;SDS011;49289;51.670;5.624;2022-10-18T05:07:09;26.50;;;11.90;;
63193;SDS011;49289;51.670;5.624;2022-10-18T05:08:57;27.00;;;12.20;;
63193;SDS011;49289;51.670;5.624;2022-10-18T05:10:45;59.10;;;13.80;;
63193;SDS011;49289;51.670;5.624;2022-10-18T05:12:33;62.00;;;14.60;;
63193;SDS011;49289;51.670;5.624;2022-10-18T05:14:21;65.60;;;14.80;;
63193;SDS011;49289;51.670;5.624;2022-10-18T05:16:08;75.10;;;14.30;;
63193;SDS011;49289;51.670;5.624;2022-10-18T05:17:55;33.60;;;11.80;;
63193;SDS011;49289;51.670;5.624;2022-10-18T05:19:43;41.70;;;12.00;;
63193;SDS011;49289;51.670;5.624;2022-10-18T05:21:31;56.90;;;13.20;;
63193;SDS011;49289;51.670;5.624;2022-10-18T05:23:18;40.00;;;12.80;;
63193;SDS011;49289;51.670;5.624;2022-10-18T05:25:06;58.10;;;13.20;;
63193;SDS011;49289;51.670;5.624;2022-10-18T05:26:55;57.40;;;13.80;;
63193;SDS011;49289;51.670;5.624;2022-10-18T05:28:44;67.90;;;14.20;;
63193;SDS011;49289;51.670;5.624;2022-10-18T05:30:32;59.50;;;14.20;;
63193;SDS011;49289;51.670;5.624;2022-10-18T05:32:20;90.80;;;15.30;;
63193;SDS011;49289;51.670;5.624;2022-10-18T05:34:08;71.20;;;15.40;;
63193;SDS011;49289;51.670;5.624;2022-10-18T05:35:57;114.30;;;17.00;;
63193;SDS011;49289;51.670;5.624;2022-10-18T05:37:46;86.30;;;15.50;;
63193;SDS011;49289;51.670;5.624;2022-10-18T05:39:34;86.10;;;14.60;;
63193;SDS011;49289;51.670;5.624;2022-10-18T05:41:21;85.70;;;15.20;;
63193;SDS011;49289;51.670;5.624;2022-10-18T05:43:08;111.00;;;16.40;;
63193;SDS011;49289;51.670;5.624;2022-10-18T05:44:55;74.30;;;14.40;;
63193;SDS011;49289;51.670;5.624;2022-10-18T05:46:43;61.00;;;14.30;;
63193;SDS011;49289;51.670;5.624;2022-10-18T05:48:32;59.10;;;13.70;;
63193;SDS011;49289;51.670;5.624;2022-10-18T05:50:20;67.20;;;14.40;;
63193;SDS011;49289;51.670;5.624;2022-10-18T05:52:09;47.10;;;12.60;;
63193;SDS011;49289;51.670;5.624;2022-10-18T05:53:57;49.70;;;12.30;;
63193;SDS011;49289;51.670;5.624;2022-10-18T05:55:45;48.20;;;12.70;;
63193;SDS011;49289;51.670;5.624;2022-10-18T05:57:33;70.40;;;13.10;;
63193;SDS011;49289;51.670;5.624;2022-10-18T05:59:20;100.70;;;13.00;;
63193;SDS011;49289;51.670;5.624;2022-10-18T06:01:07;73.60;;;13.20;;
63193;SDS011;49289;51.670;5.624;2022-10-18T06:02:55;55.20;;;12.20;;
63193;SDS011;49289;51.670;5.624;2022-10-18T06:04:45;44.70;;;11.90;;
63193;SDS011;49289;51.670;5.624;2022-10-18T06:06:33;62.00;;;12.40;;
63193;SDS011;49289;51.670;5.624;2022-10-18T06:08:21;62.80;;;11.70;;
63193;SDS011;49289;51.670;5.624;2022-10-18T06:09:54;68.70;;;11.50;;
63193;SDS011;49289;51.670;5.624;2022-10-18T06:11:41;58.60;;;12.40;;
63193;SDS011;49289;51.670;5.624;2022-10-18T06:13:28;46.30;;;11.20;;
63193;SDS011;49289;51.670;5.624;2022-10-18T06:15:15;51.00;;;10.90;;
63193;SDS011;49289;51.670;5.624;2022-10-18T06:17:02;53.30;;;10.80;;
63193;SDS011;49289;51.670;5.624;2022-10-18T06:18:52;46.00;;;10.70;;
63193;SDS011;49289;51.670;5.624;2022-10-18T06:20:39;38.10;;;10.10;;
63193;SDS011;49289;51.670;5.624;2022-10-18T06:22:27;30.60;;;10.40;;
63193;SDS011;49289;51.670;5.624;2022-10-18T06:24:15;41.70;;;10.20;;
63193;SDS011;49289;51.670;5.624;2022-10-18T06:26:04;26.40;;;9.30;;
63193;SDS011;49289;51.670;5.624;2022-10-18T06:27:53;16.70;;;9.30;;
63193;SDS011;49289;51.670;5.624;2022-10-18T06:29:42;28.20;;;9.20;;
63193;SDS011;49289;51.670;5.624;2022-10-18T06:31:31;31.10;;;9.60;;
63193;SDS011;49289;51.670;5.624;2022-10-18T06:33:19;28.10;;;9.70;;
63193;SDS011;49289;51.670;5.624;2022-10-18T06:35:07;35.00;;;11.30;;
63193;SDS011;49289;51.670;5.624;2022-10-18T06:36:54;39.80;;;9.90;;
63193;SDS011;49289;51.670;5.624;2022-10-18T06:38:42;20.40;;;9.40;;
63193;SDS011;49289;51.670;5.624;2022-10-18T06:40:30;30.90;;;9.80;;
63193;SDS011;49289;51.670;5.624;2022-10-18T06:42:18;48.40;;;10.60;;
63193;SDS011;49289;51.670;5.624;2022-10-18T06:44:08;44.90;;;11.40;;
63193;SDS011;49289;51.670;5.624;2022-10-18T06:45:54;65.00;;;11.50;;
63193;SDS011;49289;51.670;5.624;2022-10-18T06:47:42;61.90;;;10.90;;
63193;SDS011;49289;51.670;5.624;2022-10-18T06:49:30;71.70;;;12.30;;
63193;SDS011;49289;51.670;5.624;2022-10-18T06:51:18;61.70;;;10.70;;
63193;SDS011;49289;51.670;5.624;2022-10-18T06:53:07;71.90;;;11.90;;
63193;SDS011;49289;51.670;5.624;2022-10-18T06:54:55;67.80;;;11.70;;
63193;SDS011;49289;51.670;5.624;2022-10-18T06:56:43;60.40;;;11.40;;
63193;SDS011;49289;51.670;5.624;2022-10-18T06:58:32;45.20;;;11.00;;
63193;SDS011;49289;51.670;5.624;2022-10-18T07:00:19;44.60;;;10.20;;
63193;SDS011;49289;51.670;5.624;2022-10-18T07:02:06;63.30;;;11.50;;
63193;SDS011;49289;51.670;5.624;2022-10-18T07:03:56;69.40;;;11.30;;
63193;SDS011;49289;51.670;5.624;2022-10-18T07:05:43;61.60;;;10.80;;
63193;SDS011;49289;51.670;5.624;2022-10-18T07:07:30;73.70;;;11.70;;
63193;SDS011;49289;51.670;5.624;2022-10-18T07:09:17;49.60;;;11.00;;
63193;SDS011;49289;51.670;5.624;2022-10-18T07:11:04;71.50;;;11.30;;
63193;SDS011;49289;51.670;5.624;2022-10-18T07:12:51;56.50;;;10.70;;
63193;SDS011;49289;51.670;5.624;2022-10-18T07:14:38;69.50;;;11.80;;
63193;SDS011;49289;51.670;5.624;2022-10-18T07:16:25;93.60;;;12.20;;
63193;SDS011;49289;51.670;5.624;2022-10-18T07:18:12;49.60;;;11.70;;
63193;SDS011;49289;51.670;5.624;2022-10-18T07:20:00;52.00;;;10.10;;
63193;SDS011;49289;51.670;5.624;2022-10-18T07:21:47;64.70;;;12.70;;
63193;SDS011;49289;51.670;5.624;2022-10-18T07:23:35;76.70;;;12.60;;
63193;SDS011;49289;51.670;5.624;2022-10-18T07:25:21;62.00;;;12.10;;
63193;SDS011;49289;51.670;5.624;2022-10-18T07:27:08;54.80;;;12.10;;
63193;SDS011;49289;51.670;5.624;2022-10-18T07:28:57;71.40;;;12.40;;
63193;SDS011;49289;51.670;5.624;2022-10-18T07:30:43;64.70;;;12.00;;
63193;SDS011;49289;51.670;5.624;2022-10-18T07:32:31;58.30;;;11.80;;
63193;SDS011;49289;51.670;5.624;2022-10-18T07:34:19;68.50;;;12.60;;
63193;SDS011;49289;51.670;5.624;2022-10-18T07:36:08;57.90;;;12.80;;
63193;SDS011;49289;51.670;5.624;2022-10-18T07:37:55;50.10;;;12.80;;
63193;SDS011;49289;51.670;5.624;2022-10-18T07:39:43;38.10;;;12.50;;
63193;SDS011;49289;51.670;5.624;2022-10-18T07:41:31;56.60;;;13.00;;
63193;SDS011;49289;51.670;5.624;2022-10-18T07:43:19;43.00;;;13.10;;
63193;SDS011;49289;51.670;5.624;2022-10-18T07:45:07;46.50;;;13.50;;
63193;SDS011;49289;51.670;5.624;2022-10-18T07:46:56;44.40;;;13.20;;
63193;SDS011;49289;51.670;5.624;2022-10-18T07:48:44;35.60;;;12.50;;
63193;SDS011;49289;51.670;5.624;2022-10-18T07:50:31;38.70;;;13.40;;
63193;SDS011;49289;51.670;5.624;2022-10-18T07:52:18;37.10;;;12.60;;
63193;SDS011;49289;51.670;5.624;2022-10-18T07:54:06;41.70;;;12.80;;
63193;SDS011;49289;51.670;5.624;2022-10-18T07:55:53;38.90;;;12.50;;
63193;SDS011;49289;51.670;5.624;2022-10-18T07:57:42;56.90;;;13.00;;
63193;SDS011;49289;51.670;5.624;2022-10-18T07:59:30;46.30;;;13.10;;
63193;SDS011;49289;51.670;5.624;2022-10-18T08:01:19;48.70;;;12.70;;
63193;SDS011;49289;51.670;5.624;2022-10-18T08:03:07;43.60;;;12.90;;
63193;SDS011;49289;51.670;5.624;2022-10-18T08:04:58;34.30;;;13.00;;
63193;SDS011;49289;51.670;5.624;2022-10-18T08:06:46;38.20;;;13.30;;
63193;SDS011;49289;51.670;5.624;2022-10-18T08:08:34;38.10;;;13.90;;
63193;SDS011;49289;51.670;5.624;2022-10-18T08:10:22;33.10;;;13.70;;
63193;SDS011;49289;51.670;5.624;2022-10-18T08:12:10;30.60;;;13.40;;
63193;SDS011;49289;51.670;5.624;2022-10-18T08:14:00;33.40;;;14.10;;
63193;SDS011;49289;51.670;5.624;2022-10-18T08:15:48;30.50;;;13.60;;
63193;SDS011;49289;51.670;5.624;2022-10-18T08:17:36;33.40;;;14.00;;
63193;SDS011;49289;51.670;5.624;2022-10-18T08:19:24;26.50;;;13.20;;
63193;SDS011;49289;51.670;5.624;2022-10-18T08:21:12;24.90;;;13.20;;
63193;SDS011;49289;51.670;5.624;2022-10-18T08:23:00;31.30;;;13.80;;
63193;SDS011;49289;51.670;5.624;2022-10-18T08:24:48;30.30;;;13.90;;
63193;SDS011;49289;51.670;5.624;2022-10-18T08:26:36;29.50;;;13.80;;
63193;SDS011;49289;51.670;5.624;2022-10-18T08:28:24;29.10;;;13.80;;
63193;SDS011;49289;51.670;5.624;2022-10-18T08:30:13;30.40;;;12.90;;
63193;SDS011;49289;51.670;5.624;2022-10-18T08:32:02;27.00;;;13.50;;
63193;SDS011;49289;51.670;5.624;2022-10-18T08:33:49;23.80;;;12.40;;
63193;SDS011;49289;51.670;5.624;2022-10-18T08:35:36;26.30;;;13.70;;
63193;SDS011;49289;51.670;5.624;2022-10-18T08:37:23;28.10;;;13.90;;
63193;SDS011;49289;51.670;5.624;2022-10-18T08:39:10;36.10;;;13.80;;
63193;SDS011;49289;51.670;5.624;2022-10-18T08:40:58;28.40;;;13.60;;
63193;SDS011;49289;51.670;5.624;2022-10-18T08:44:51;25.60;;;12.50;;
63193;SDS011;49289;51.670;5.624;2022-10-18T08:46:41;28.50;;;13.10;;
63193;SDS011;49289;51.670;5.624;2022-10-18T08:48:21;27.00;;;13.20;;
63193;SDS011;49289;51.670;5.624;2022-10-18T08:50:10;25.00;;;11.50;;
63193;SDS011;49289;51.670;5.624;2022-10-18T08:51:57;20.70;;;11.40;;
63193;SDS011;49289;51.670;5.624;2022-10-18T08:53:48;24.10;;;11.10;;
63193;SDS011;49289;51.670;5.624;2022-10-18T08:55:37;23.00;;;11.30;;
63193;SDS011;49289;51.670;5.624;2022-10-18T08:57:22;26.90;;;11.50;;
63193;SDS011;49289;51.670;5.624;2022-10-18T08:59:10;19.00;;;11.20;;
63193;SDS011;49289;51.670;5.624;2022-10-18T09:01:01;23.50;;;11.40;;
63193;SDS011;49289;51.670;5.624;2022-10-18T09:02:50;18.00;;;10.30;;
63193;SDS011;49289;51.670;5.624;2022-10-18T09:04:42;20.30;;;11.50;;
63193;SDS011;49289;51.670;5.624;2022-10-18T09:06:30;20.50;;;11.40;;
63193;SDS011;49289;51.670;5.624;2022-10-18T09:08:21;15.40;;;11.30;;
63193;SDS011;49289;51.670;5.624;2022-10-18T09:10:28;23.20;;;11.50;;
63193;SDS011;49289;51.670;5.624;2022-10-18T09:12:05;19.90;;;11.00;;
63193;SDS011;49289;51.670;5.624;2022-10-18T09:14:16;22.10;;;11.10;;
63193;SDS011;49289;51.670;5.624;2022-10-18T09:16:15;27.30;;;12.00;;
63193;SDS011;49289;51.670;5.624;2022-10-18T09:18:06;16.90;;;11.30;;
63193;SDS011;49289;51.670;5.624;2022-10-18T09:19:56;21.00;;;10.50;;
63193;SDS011;49289;51.670;5.624;2022-10-18T09:21:59;20.80;;;10.70;;
63193;SDS011;49289;51.670;5.624;2022-10-18T09:23:46;20.20;;;11.30;;
63193;SDS011;49289;51.670;5.624;2022-10-18T09:25:34;16.60;;;10.20;;
63193;SDS011;49289;51.670;5.624;2022-10-18T09:27:21;18.60;;;9.60;;
63193;SDS011;49289;51.670;5.624;2022-10-18T09:29:09;18.60;;;8.90;;
63193;SDS011;49289;51.670;5.624;2022-10-18T09:30:57;17.50;;;9.30;;
63193;SDS011;49289;51.670;5.624;2022-10-18T09:32:44;17.80;;;9.10;;
63193;SDS011;49289;51.670;5.624;2022-10-18T09:34:35;17.40;;;9.20;;
63193;SDS011;49289;51.670;5.624;2022-10-18T09:36:23;18.00;;;9.50;;
63193;SDS011;49289;51.670;5.624;2022-10-18T09:38:13;18.40;;;9.20;;
63193;SDS011;49289;51.670;5.624;2022-10-18T09:40:05;21.20;;;9.90;;
63193;SDS011;49289;51.670;5.624;2022-10-18T09:41:56;17.50;;;9.30;;
63193;SDS011;49289;51.670;5.624;2022-10-18T09:43:45;19.20;;;9.20;;
63193;SDS011;49289;51.670;5.624;2022-10-18T09:45:34;17.20;;;9.80;;
63193;SDS011;49289;51.670;5.624;2022-10-18T09:47:21;15.90;;;8.90;;
63193;SDS011;49289;51.670;5.624;2022-10-18T09:49:10;18.40;;;9.40;;
63193;SDS011;49289;51.670;5.624;2022-10-18T09:50:59;16.70;;;9.00;;
63193;SDS011;49289;51.670;5.624;2022-10-18T09:52:47;16.80;;;9.00;;
63193;SDS011;49289;51.670;5.624;2022-10-18T09:54:33;12.30;;;7.50;;
63193;SDS011;49289;51.670;5.624;2022-10-18T09:56:21;17.50;;;8.10;;
63193;SDS011;49289;51.670;5.624;2022-10-18T09:58:08;15.50;;;7.80;;
63193;SDS011;49289;51.670;5.624;2022-10-18T09:59:56;17.60;;;8.20;;
63193;SDS011;49289;51.670;5.624;2022-10-18T10:01:45;11.30;;;7.70;;
63193;SDS011;49289;51.670;5.624;2022-10-18T10:03:32;16.60;;;8.20;;
63193;SDS011;49289;51.670;5.624;2022-10-18T10:05:20;18.90;;;7.50;;
63193;SDS011;49289;51.670;5.624;2022-10-18T10:07:10;13.40;;;7.00;;
63193;SDS011;49289;51.670;5.624;2022-10-18T10:09:00;12.30;;;6.40;;
63193;SDS011;49289;51.670;5.624;2022-10-18T10:10:46;12.90;;;6.50;;
63193;SDS011;49289;51.670;5.624;2022-10-18T10:12:35;15.00;;;6.50;;
63193;SDS011;49289;51.670;5.624;2022-10-18T10:14:23;11.70;;;6.70;;
63193;SDS011;49289;51.670;5.624;2022-10-18T10:16:11;13.50;;;6.80;;
63193;SDS011;49289;51.670;5.624;2022-10-18T10:18:00;12.40;;;5.70;;
63193;SDS011;49289;51.670;5.624;2022-10-18T10:19:57;15.60;;;6.10;;
63193;SDS011;49289;51.670;5.624;2022-10-18T10:21:45;10.80;;;5.10;;
63193;SDS011;49289;51.670;5.624;2022-10-18T10:23:34;13.80;;;5.10;;
63193;SDS011;49289;51.670;5.624;2022-10-18T10:25:25;9.70;;;5.10;;
63193;SDS011;49289;51.670;5.624;2022-10-18T10:27:14;11.70;;;5.70;;
63193;SDS011;49289;51.670;5.624;2022-10-18T10:29:02;10.80;;;6.00;;
63193;SDS011;49289;51.670;5.624;2022-10-18T10:30:50;13.60;;;6.20;;
63193;SDS011;49289;51.670;5.624;2022-10-18T10:32:48;9.10;;;5.30;;
63193;SDS011;49289;51.670;5.624;2022-10-18T10:34:36;8.20;;;3.80;;
63193;SDS011;49289;51.670;5.624;2022-10-18T10:36:25;7.70;;;3.50;;
63193;SDS011;49289;51.670;5.624;2022-10-18T10:38:20;9.60;;;3.40;;
63193;SDS011;49289;51.670;5.624;2022-10-18T10:42:14;9.10;;;3.20;;
63193;SDS011;49289;51.670;5.624;2022-10-18T10:44:03;8.60;;;3.20;;
63193;SDS011;49289;51.670;5.624;2022-10-18T10:46:00;7.10;;;3.00;;
63193;SDS011;49289;51.670;5.624;2022-10-18T10:47:49;8.10;;;3.10;;